Terminal Aerodrome Forecast
Issued by NWS Twin Cities, MN

Home | Current Version | Previous Version | Graphics & Text | Print | Product List | Glossary On
Versions: 1 2 3 4 5 6 7 8 9 10 11 12 13 14 15 16 17
516
FTUS43 KMPX 182320
TAFEAU
TAF
KEAU 182320Z 1900/1924 30005KT P6SM SCT035 BKN070
      TEMPO 1900/1902 5SM -SHRA SCT020 BKN030
     FM190600 02004KT P6SM SKC
     FM191300 09005KT P6SM SKC=

USA.gov is the U.S. government's official web portal to all federal, state and local government web resources and services.